createdAt,value
2023-05-17T00:02:18.158Z,19.65
2023-05-17T00:04:46.698Z,19.65
2023-05-17T00:07:15.243Z,19.64
2023-05-17T00:09:43.411Z,19.58
2023-05-17T00:12:11.511Z,19.62
2023-05-17T00:14:39.693Z,19.61
2023-05-17T00:17:08.358Z,19.59
2023-05-17T00:19:36.423Z,19.61
2023-05-17T00:22:04.815Z,19.61
2023-05-17T00:24:33.318Z,19.61
2023-05-17T00:27:01.432Z,19.59
2023-05-17T00:29:29.383Z,19.60
2023-05-17T00:31:57.550Z,19.59
2023-05-17T00:34:25.905Z,19.58
2023-05-17T00:36:54.065Z,19.58
2023-05-17T00:39:22.488Z,19.56
2023-05-17T00:41:50.821Z,19.55
2023-05-17T00:44:18.893Z,19.52
2023-05-17T00:46:47.393Z,19.51
2023-05-17T00:49:15.355Z,19.51
2023-05-17T00:51:44.313Z,19.49
2023-05-17T00:54:13.076Z,19.47
2023-05-17T00:56:41.481Z,19.49
2023-05-17T00:59:09.580Z,19.47
2023-05-17T01:01:38.740Z,19.43
2023-05-17T01:04:08.136Z,19.40
2023-05-17T01:06:40.261Z,19.34
2023-05-17T01:09:08.556Z,19.35
2023-05-17T01:11:51.983Z,19.33
2023-05-17T01:14:39.550Z,19.32
2023-05-17T01:17:14.750Z,19.27
2023-05-17T01:20:12.618Z,19.29
2023-05-17T01:22:59.132Z,19.24
2023-05-17T01:25:27.113Z,19.22
2023-05-17T01:27:56.833Z,19.18
2023-05-17T01:30:28.840Z,19.10
2023-05-17T01:32:59.619Z,19.10
2023-05-17T01:35:28.107Z,19.08
2023-05-17T01:37:56.618Z,19.09
2023-05-17T01:40:25.009Z,19.07
2023-05-17T01:43:11.226Z,19.07
2023-05-17T01:45:47.765Z,19.06
2023-05-17T01:48:21.608Z,19.00
2023-05-17T01:50:51.910Z,19.00
2023-05-17T01:53:39.967Z,19.00
2023-05-17T01:56:11.582Z,18.95
2023-05-17T01:58:48.019Z,18.98
2023-05-17T02:01:17.570Z,19.03
2023-05-17T02:03:50.294Z,19.05
2023-05-17T02:06:18.511Z,19.05
2023-05-17T02:08:46.576Z,19.10
2023-05-17T02:11:14.669Z,19.11
2023-05-17T02:13:42.898Z,19.17
2023-05-17T02:16:11.456Z,19.20
2023-05-17T02:18:40.921Z,19.25
2023-05-17T02:21:09.228Z,19.28
2023-05-17T02:23:38.332Z,19.30
2023-05-17T02:26:06.694Z,19.33
2023-05-17T02:28:35.504Z,19.38
2023-05-17T02:31:03.622Z,19.40
2023-05-17T02:33:32.691Z,19.50
2023-05-17T02:36:01.260Z,19.59
2023-05-17T02:38:29.714Z,19.63
2023-05-17T02:40:58.028Z,19.77
2023-05-17T02:43:26.021Z,19.88
2023-05-17T02:45:54.145Z,20.16
2023-05-17T02:48:22.270Z,20.41
2023-05-17T02:50:53.882Z,20.52
2023-05-17T02:53:22.229Z,20.62
2023-05-17T02:55:50.469Z,20.73
2023-05-17T02:58:18.658Z,20.93
2023-05-17T03:00:46.932Z,21.14
2023-05-17T03:03:15.202Z,21.36
2023-05-17T03:05:43.425Z,21.41
2023-05-17T03:08:11.570Z,21.26
2023-05-17T03:10:39.792Z,21.15
2023-05-17T03:13:07.925Z,20.99
2023-05-17T03:15:36.645Z,20.84
2023-05-17T03:18:05.652Z,20.79
2023-05-17T03:20:34.607Z,20.92
2023-05-17T03:23:03.434Z,21.09
2023-05-17T03:25:31.971Z,21.18
2023-05-17T03:28:00.494Z,21.35
2023-05-17T03:30:29.084Z,21.48
2023-05-17T03:32:57.391Z,21.59
2023-05-17T03:35:25.673Z,21.88
2023-05-17T03:37:53.618Z,22.01
2023-05-17T03:40:24.689Z,22.16
2023-05-17T03:42:53.344Z,22.49
2023-05-17T03:45:21.807Z,22.86
2023-05-17T03:47:49.829Z,23.77
2023-05-17T03:50:17.963Z,24.96
2023-05-17T03:52:46.632Z,25.44
2023-05-17T03:55:15.603Z,26.68
2023-05-17T03:57:44.040Z,27.92
2023-05-17T04:00:13.011Z,29.34
2023-05-17T04:02:41.145Z,30.94
2023-05-17T04:05:11.134Z,32.48
2023-05-17T04:07:39.863Z,32.27
2023-05-17T04:10:08.424Z,31.87
2023-05-17T04:12:39.790Z,31.85
2023-05-17T04:15:08.551Z,30.73
2023-05-17T04:17:37.428Z,29.45
2023-05-17T04:20:09.230Z,29.09
2023-05-17T04:22:39.667Z,29.30
2023-05-17T04:25:08.756Z,31.23
2023-05-17T04:27:37.422Z,31.08
2023-05-17T04:30:06.563Z,30.02
2023-05-17T04:32:35.033Z,29.36
2023-05-17T04:35:03.727Z,29.01
2023-05-17T04:37:33.226Z,28.30
2023-05-17T04:40:02.733Z,27.40
2023-05-17T04:42:31.260Z,26.40
2023-05-17T04:44:59.650Z,26.15
2023-05-17T04:47:30.156Z,26.85
2023-05-17T04:50:01.724Z,28.03
2023-05-17T04:52:34.713Z,30.39
2023-05-17T04:55:03.702Z,32.01
2023-05-17T04:57:32.060Z,33.54
2023-05-17T05:00:00.154Z,35.02
2023-05-17T05:02:28.735Z,35.21
2023-05-17T05:05:01.083Z,35.12
2023-05-17T05:07:29.554Z,33.80
2023-05-17T05:09:58.138Z,33.80
2023-05-17T05:12:26.574Z,34.14
2023-05-17T05:14:55.304Z,33.89
2023-05-17T05:17:23.397Z,33.63
2023-05-17T05:19:51.544Z,34.66
2023-05-17T05:22:19.572Z,36.04
2023-05-17T05:24:47.776Z,36.88
2023-05-17T05:27:15.868Z,37.05
2023-05-17T05:29:44.233Z,37.40
2023-05-17T05:32:12.755Z,36.95
2023-05-17T05:34:41.270Z,37.29
2023-05-17T05:37:10.436Z,37.00
2023-05-17T05:39:39.008Z,37.14
2023-05-17T05:42:07.671Z,36.94
2023-05-17T05:44:36.312Z,35.94
2023-05-17T05:47:05.379Z,36.18
2023-05-17T05:49:33.509Z,36.10
2023-05-17T05:52:01.577Z,35.40
2023-05-17T05:54:30.137Z,34.22
2023-05-17T05:56:58.112Z,33.67
2023-05-17T05:59:28.990Z,33.91
2023-05-17T06:01:56.924Z,34.46
2023-05-17T06:04:36.390Z,34.33
2023-05-17T06:07:13.638Z,36.65
2023-05-17T06:09:42.905Z,37.86
2023-05-17T06:12:11.550Z,38.10
2023-05-17T06:14:39.875Z,37.11
2023-05-17T06:17:07.910Z,36.65
2023-05-17T06:19:36.855Z,36.70
2023-05-17T06:22:05.187Z,37.31
2023-05-17T06:24:35.168Z,37.90
2023-05-17T06:27:03.395Z,37.16
2023-05-17T06:29:31.284Z,37.39
2023-05-17T06:32:02.232Z,37.55
2023-05-17T06:34:30.516Z,36.95
2023-05-17T06:36:59.548Z,36.82
2023-05-17T06:39:27.753Z,37.81
2023-05-17T06:41:56.908Z,37.98
2023-05-17T06:44:25.878Z,37.68
2023-05-17T06:46:54.199Z,36.55
2023-05-17T06:49:22.570Z,36.48
2023-05-17T06:51:50.840Z,36.96
2023-05-17T06:54:20.035Z,37.38
2023-05-17T06:56:49.466Z,37.54
2023-05-17T06:59:18.149Z,37.04
2023-05-17T07:01:47.037Z,35.88
2023-05-17T07:04:17.663Z,35.25
2023-05-17T07:06:46.058Z,33.30
2023-05-17T07:09:14.335Z,31.24
2023-05-17T07:11:42.491Z,29.55
2023-05-17T07:14:10.604Z,28.51
2023-05-17T07:16:38.888Z,27.90
2023-05-17T07:19:07.442Z,27.31
2023-05-17T07:21:36.263Z,26.62
2023-05-17T07:24:04.928Z,26.13
2023-05-17T07:26:33.309Z,25.72
2023-05-17T07:29:03.593Z,25.41
2023-05-17T07:31:32.037Z,25.55
2023-05-17T07:34:01.809Z,25.66
2023-05-17T07:36:31.576Z,25.45
2023-05-17T07:38:59.722Z,25.25
2023-05-17T07:41:28.403Z,25.16
2023-05-17T07:43:56.870Z,25.23
2023-05-17T07:46:25.428Z,25.34
2023-05-17T07:48:55.035Z,25.28
2023-05-17T07:51:24.704Z,25.32
2023-05-17T07:53:55.631Z,25.11
2023-05-17T07:56:23.796Z,25.26
2023-05-17T07:58:55.740Z,25.20
2023-05-17T08:01:24.212Z,25.30
2023-05-17T08:03:52.572Z,25.31
2023-05-17T08:06:20.654Z,25.21
2023-05-17T08:08:48.739Z,25.27
2023-05-17T08:11:17.276Z,25.12
2023-05-17T08:13:46.114Z,25.09
2023-05-17T08:16:15.038Z,25.16
2023-05-17T08:18:46.917Z,25.03
2023-05-17T08:21:18.692Z,24.84
2023-05-17T08:23:49.287Z,24.58
2023-05-17T08:26:19.633Z,24.46
2023-05-17T08:28:47.967Z,24.45
2023-05-17T08:31:16.517Z,24.43
2023-05-17T08:33:44.978Z,24.30
2023-05-17T08:36:13.172Z,24.36
2023-05-17T08:38:41.680Z,24.31
2023-05-17T08:41:10.232Z,24.44
2023-05-17T08:43:38.618Z,24.57
2023-05-17T08:46:07.047Z,24.72
2023-05-17T08:48:42.345Z,24.72
2023-05-17T08:51:12.460Z,24.66
2023-05-17T08:53:41.179Z,24.63
2023-05-17T08:56:09.850Z,24.64
2023-05-17T08:58:52.144Z,24.53
2023-05-17T09:01:26.607Z,24.52
2023-05-17T09:03:55.669Z,24.62
2023-05-17T09:06:24.783Z,24.77
2023-05-17T09:08:55.334Z,24.81
2023-05-17T09:11:28.811Z,24.63
2023-05-17T09:14:01.539Z,24.72
2023-05-17T09:16:36.702Z,24.84
2023-05-17T09:19:06.526Z,24.96
2023-05-17T09:21:37.241Z,25.02
2023-05-17T09:24:08.298Z,25.03
2023-05-17T09:26:44.727Z,24.98
2023-05-17T09:29:14.704Z,25.16
2023-05-17T09:31:44.905Z,25.20
2023-05-17T09:34:13.077Z,25.03
2023-05-17T09:36:44.673Z,25.18
2023-05-17T09:39:15.436Z,25.31
2023-05-17T09:41:48.278Z,25.29
2023-05-17T09:44:17.194Z,25.18
2023-05-17T09:46:48.458Z,25.15
2023-05-17T09:49:18.610Z,25.17
2023-05-17T09:51:50.525Z,25.06
2023-05-17T09:54:18.971Z,25.05
2023-05-17T09:56:55.759Z,25.13
2023-05-17T09:59:28.701Z,25.35
2023-05-17T10:01:59.282Z,25.48
2023-05-17T10:04:30.376Z,25.27
2023-05-17T10:07:01.558Z,25.34
2023-05-17T10:09:35.033Z,25.54
2023-05-17T10:12:06.242Z,25.42
2023-05-17T10:14:36.820Z,25.38
2023-05-17T10:17:09.499Z,25.20
2023-05-17T10:19:38.451Z,25.23
2023-05-17T10:22:21.890Z,25.20
2023-05-17T10:24:52.351Z,25.25
2023-05-17T10:27:22.278Z,25.46
2023-05-17T10:29:51.215Z,25.36
2023-05-17T10:32:23.782Z,25.43
2023-05-17T10:35:05.817Z,25.35
2023-05-17T10:37:40.974Z,25.30
2023-05-17T10:40:14.092Z,25.29
2023-05-17T10:42:47.852Z,25.33
2023-05-17T10:45:16.309Z,25.40
2023-05-17T10:47:46.399Z,25.25
2023-05-17T10:50:15.629Z,25.39
2023-05-17T10:52:48.600Z,25.45
2023-05-17T10:55:25.488Z,25.51
2023-05-17T10:58:18.321Z,25.25
2023-05-17T11:00:49.201Z,25.33
2023-05-17T11:03:30.364Z,25.59
2023-05-17T11:06:12.911Z,25.72
2023-05-17T11:09:06.268Z,25.83
2023-05-17T11:11:38.416Z,25.88
2023-05-17T11:14:07.131Z,25.78
2023-05-17T11:16:37.463Z,25.64
2023-05-17T11:19:10.626Z,25.61
2023-05-17T11:21:49.175Z,25.45
2023-05-17T11:24:25.379Z,25.31
2023-05-17T11:26:55.895Z,25.46
2023-05-17T11:29:34.721Z,25.61
2023-05-17T11:32:10.690Z,25.71
2023-05-17T11:34:39.236Z,25.83
2023-05-17T11:37:19.953Z,25.70
2023-05-17T11:40:08.460Z,25.74
2023-05-17T11:42:38.659Z,25.87
2023-05-17T11:45:08.969Z,25.82
2023-05-17T11:47:41.097Z,25.87
2023-05-17T11:50:10.357Z,25.72
2023-05-17T11:52:41.280Z,25.74
2023-05-17T11:55:15.854Z,25.72
2023-05-17T11:57:44.743Z,25.89
2023-05-17T12:00:14.130Z,26.03
2023-05-17T12:02:43.237Z,26.15
2023-05-17T12:05:14.439Z,26.16
2023-05-17T12:07:44.058Z,26.08
2023-05-17T12:10:13.988Z,25.96
2023-05-17T12:12:43.630Z,25.70
2023-05-17T12:15:19.109Z,25.82
2023-05-17T12:17:50.775Z,26.02
2023-05-17T12:20:19.806Z,26.13
2023-05-17T12:22:54.905Z,26.05
2023-05-17T12:25:25.926Z,26.11
2023-05-17T12:27:55.034Z,26.09
2023-05-17T12:30:24.471Z,25.97
2023-05-17T12:32:52.778Z,26.01
2023-05-17T12:35:21.267Z,26.04
2023-05-17T12:37:50.109Z,25.96
2023-05-17T12:40:18.592Z,25.84
2023-05-17T12:42:46.992Z,25.89
2023-05-17T12:45:15.208Z,26.06
2023-05-17T12:47:43.986Z,25.99
2023-05-17T12:50:12.235Z,25.95
2023-05-17T12:52:41.786Z,25.81
2023-05-17T12:55:14.166Z,25.63
2023-05-17T12:57:49.993Z,25.61
2023-05-17T13:00:19.226Z,25.79
2023-05-17T13:02:48.077Z,25.69
2023-05-17T13:05:22.640Z,25.85
2023-05-17T13:07:51.399Z,26.05
2023-05-17T13:10:29.208Z,26.00
2023-05-17T13:12:59.752Z,25.90
2023-05-17T13:15:32.324Z,25.93
2023-05-17T13:18:01.304Z,25.72
2023-05-17T13:20:30.357Z,25.67
2023-05-17T13:22:58.758Z,25.69
2023-05-17T13:25:26.890Z,25.75
2023-05-17T13:27:56.406Z,25.78
2023-05-17T13:30:25.546Z,25.81
2023-05-17T13:32:55.047Z,25.96
2023-05-17T13:35:23.400Z,25.90
2023-05-17T13:37:51.825Z,25.90
2023-05-17T13:40:20.251Z,26.02
2023-05-17T13:42:49.160Z,26.14
2023-05-17T13:45:21.118Z,26.19
2023-05-17T13:47:49.976Z,26.05
2023-05-17T13:50:18.222Z,25.92
2023-05-17T13:52:46.422Z,25.96
2023-05-17T13:55:15.537Z,26.05
2023-05-17T13:57:46.518Z,26.06
2023-05-17T14:00:15.137Z,26.08
2023-05-17T14:02:44.032Z,25.86
2023-05-17T14:05:12.765Z,25.83
2023-05-17T14:07:43.714Z,25.89
2023-05-17T14:10:15.058Z,26.09
2023-05-17T14:12:44.042Z,26.21
2023-05-17T14:15:14.024Z,26.20
2023-05-17T14:17:42.849Z,26.15
2023-05-17T14:20:14.699Z,26.03
2023-05-17T14:22:43.068Z,25.98
2023-05-17T14:25:12.285Z,26.00
2023-05-17T14:27:41.510Z,25.95
2023-05-17T14:30:12.803Z,25.96
2023-05-17T14:32:42.478Z,25.93
2023-05-17T14:35:10.969Z,25.98
2023-05-17T14:37:39.294Z,25.93
2023-05-17T14:40:10.860Z,25.98
2023-05-17T14:42:40.656Z,25.87
2023-05-17T14:45:09.531Z,25.83
2023-05-17T14:47:38.680Z,25.67
2023-05-17T14:50:07.548Z,25.68
2023-05-17T14:52:37.254Z,25.63
2023-05-17T14:55:08.306Z,25.71
2023-05-17T14:57:37.339Z,25.71
2023-05-17T15:00:10.756Z,25.66
2023-05-17T15:02:40.580Z,25.66
2023-05-17T15:05:09.850Z,25.66
2023-05-17T15:07:38.618Z,25.57
2023-05-17T15:10:08.714Z,25.61
2023-05-17T15:12:37.498Z,25.55
2023-05-17T15:15:06.577Z,25.54
2023-05-17T15:17:38.116Z,25.49
2023-05-17T15:20:07.909Z,25.43
2023-05-17T15:22:36.022Z,25.43
2023-05-17T15:25:05.407Z,25.43
2023-05-17T15:27:34.396Z,25.35
2023-05-17T15:30:02.835Z,25.23
2023-05-17T15:32:34.745Z,25.20
2023-05-17T15:35:03.343Z,25.21
2023-05-17T15:37:31.900Z,25.10
2023-05-17T15:40:09.224Z,25.15
2023-05-17T15:42:38.130Z,25.12
2023-05-17T15:45:07.378Z,25.10
2023-05-17T15:47:43.136Z,24.96
2023-05-17T15:50:12.488Z,24.97
2023-05-17T15:52:41.624Z,24.89
2023-05-17T15:55:11.394Z,24.89
2023-05-17T15:57:49.854Z,24.73
2023-05-17T16:00:18.450Z,24.73
2023-05-17T16:02:47.478Z,24.59
2023-05-17T16:05:16.123Z,24.49
2023-05-17T16:07:44.262Z,24.45
2023-05-17T16:10:15.926Z,24.37
2023-05-17T16:12:47.800Z,24.30
2023-05-17T16:15:16.539Z,24.18
2023-05-17T16:17:45.096Z,24.11
2023-05-17T16:20:13.655Z,24.02
2023-05-17T16:22:46.716Z,24.00
2023-05-17T16:25:22.867Z,23.97
2023-05-17T16:27:52.259Z,23.92
2023-05-17T16:30:21.143Z,23.84
2023-05-17T16:32:50.355Z,23.74
2023-05-17T16:35:20.592Z,23.65
2023-05-17T16:37:56.275Z,23.56
2023-05-17T16:40:24.872Z,23.43
2023-05-17T16:42:53.395Z,23.29
2023-05-17T16:45:22.653Z,23.20
2023-05-17T16:48:21.584Z,23.12
2023-05-17T16:50:52.991Z,22.96
2023-05-17T16:53:24.941Z,22.97
2023-05-17T16:55:53.694Z,22.91
2023-05-17T16:58:22.924Z,22.86
2023-05-17T17:00:52.459Z,22.77
2023-05-17T17:03:21.404Z,22.71
2023-05-17T17:05:53.060Z,22.63
2023-05-17T17:08:22.454Z,22.57
2023-05-17T17:10:50.919Z,22.55
2023-05-17T17:13:19.469Z,22.41
2023-05-17T17:15:47.796Z,22.37
2023-05-17T17:18:17.966Z,22.32
2023-05-17T17:20:46.762Z,22.24
2023-05-17T17:23:15.392Z,22.24
2023-05-17T17:25:44.060Z,22.14
2023-05-17T17:28:12.522Z,22.10
2023-05-17T17:30:40.998Z,21.98
2023-05-17T17:33:09.124Z,21.95
2023-05-17T17:35:37.369Z,21.84
2023-05-17T17:38:06.280Z,21.80
2023-05-17T17:40:34.697Z,21.76
2023-05-17T17:43:03.212Z,21.74
2023-05-17T17:45:31.574Z,21.63
2023-05-17T17:47:59.551Z,21.53
2023-05-17T17:50:28.058Z,21.41
2023-05-17T17:52:56.998Z,21.34
2023-05-17T17:55:25.211Z,21.30
2023-05-17T17:57:53.439Z,21.16
2023-05-17T18:00:22.491Z,21.03
2023-05-17T18:02:50.759Z,20.87
2023-05-17T18:05:19.159Z,20.69
2023-05-17T18:07:47.802Z,20.58
2023-05-17T18:10:16.497Z,20.51
2023-05-17T18:12:45.443Z,20.47
2023-05-17T18:15:14.232Z,20.44
2023-05-17T18:17:43.409Z,20.39
2023-05-17T18:20:11.741Z,20.31
2023-05-17T18:22:40.100Z,20.25
2023-05-17T18:25:08.462Z,20.25
2023-05-17T18:27:37.977Z,20.21
2023-05-17T18:30:06.791Z,20.05
2023-05-17T18:32:35.605Z,19.97
2023-05-17T18:35:04.094Z,19.93
2023-05-17T18:37:33.293Z,19.78
2023-05-17T18:40:02.909Z,19.63
2023-05-17T18:42:31.562Z,19.47
2023-05-17T18:45:01.318Z,19.39
2023-05-17T18:47:29.455Z,19.29
2023-05-17T18:49:57.856Z,19.12
2023-05-17T18:52:26.030Z,19.01
2023-05-17T18:54:54.071Z,18.86
2023-05-17T18:57:22.178Z,18.76
2023-05-17T18:59:50.437Z,18.66
2023-05-17T19:02:18.690Z,18.57
2023-05-17T19:04:48.353Z,18.50
2023-05-17T19:07:17.455Z,18.48
2023-05-17T19:09:46.439Z,18.44
2023-05-17T19:12:14.777Z,18.35
2023-05-17T19:14:43.345Z,18.25
2023-05-17T19:17:11.512Z,18.18
2023-05-17T19:19:39.808Z,18.12
2023-05-17T19:22:10.890Z,18.06
2023-05-17T19:24:39.153Z,17.99
2023-05-17T19:27:07.346Z,17.94
2023-05-17T19:29:35.559Z,17.85
2023-05-17T19:32:03.463Z,17.76
2023-05-17T19:34:31.874Z,17.65
2023-05-17T19:37:00.601Z,17.55
2023-05-17T19:39:31.560Z,17.44
2023-05-17T19:42:00.607Z,17.39
2023-05-17T19:44:29.952Z,17.31
2023-05-17T19:46:57.999Z,17.27
2023-05-17T19:49:26.104Z,17.17
2023-05-17T19:51:54.737Z,17.16
2023-05-17T19:54:23.373Z,17.12
2023-05-17T19:56:54.078Z,17.06
2023-05-17T19:59:22.852Z,17.00
2023-05-17T20:01:52.726Z,16.94
2023-05-17T20:04:27.138Z,16.89
2023-05-17T20:06:56.161Z,16.82
2023-05-17T20:09:27.009Z,16.79
2023-05-17T20:11:59.931Z,16.74
2023-05-17T20:14:28.331Z,16.71
2023-05-17T20:16:57.053Z,16.73
2023-05-17T20:19:25.786Z,16.68
2023-05-17T20:21:54.200Z,16.67
2023-05-17T20:24:25.106Z,16.61
2023-05-17T20:26:59.955Z,16.55
2023-05-17T20:29:32.123Z,16.51
2023-05-17T20:32:00.536Z,16.41
2023-05-17T20:34:30.133Z,16.39
2023-05-17T20:36:59.078Z,16.33
2023-05-17T20:39:31.497Z,16.31
2023-05-17T20:42:03.226Z,16.26
2023-05-17T20:44:34.661Z,16.19
2023-05-17T20:47:04.149Z,16.15
2023-05-17T20:49:33.674Z,16.11
2023-05-17T20:52:05.369Z,16.07
2023-05-17T20:57:23.755Z,15.93
2023-05-17T20:59:54.444Z,15.85
2023-05-17T21:02:25.379Z,15.81
2023-05-17T21:04:55.067Z,15.75
2023-05-17T21:07:29.626Z,15.74
2023-05-17T21:10:00.178Z,15.73
2023-05-17T21:12:28.994Z,15.71
2023-05-17T21:15:14.522Z,15.69
2023-05-17T21:17:44.109Z,15.66
2023-05-17T21:20:13.006Z,15.61
2023-05-17T21:23:12.719Z,15.60
2023-05-17T21:25:41.271Z,15.62
2023-05-17T21:28:09.716Z,15.59
2023-05-17T21:30:38.220Z,15.55
2023-05-17T21:33:06.530Z,15.52
2023-05-17T21:35:35.426Z,15.51
2023-05-17T21:38:03.886Z,15.51
2023-05-17T21:40:33.139Z,15.50
2023-05-17T21:43:01.974Z,15.45
2023-05-17T21:45:30.262Z,15.45
2023-05-17T21:47:58.727Z,15.38
2023-05-17T21:50:27.222Z,15.36
2023-05-17T21:52:55.432Z,15.30
2023-05-17T21:55:24.694Z,15.29
2023-05-17T21:57:53.198Z,15.27
2023-05-17T22:00:21.476Z,15.28
2023-05-17T22:02:49.793Z,15.30
2023-05-17T22:05:18.125Z,15.30
2023-05-17T22:07:46.776Z,15.30
2023-05-17T22:10:15.282Z,15.37
2023-05-17T22:12:44.232Z,15.36
2023-05-17T22:15:14.986Z,15.29
2023-05-17T22:17:51.891Z,15.20
2023-05-17T22:20:24.063Z,15.16
2023-05-17T22:22:52.247Z,15.10
2023-05-17T22:25:20.933Z,15.05
2023-05-17T22:27:49.363Z,15.00
2023-05-17T22:30:17.683Z,15.00
2023-05-17T22:32:46.440Z,14.97
2023-05-17T22:35:14.878Z,14.92
2023-05-17T22:37:43.831Z,14.88
2023-05-17T22:40:12.397Z,14.90
2023-05-17T22:42:40.755Z,14.92
2023-05-17T22:45:09.399Z,14.93
2023-05-17T22:47:38.712Z,15.00
2023-05-17T22:50:09.602Z,15.03
2023-05-17T22:52:41.220Z,15.00
2023-05-17T22:55:13.086Z,14.96
2023-05-17T22:57:41.353Z,14.96
2023-05-17T23:00:11.974Z,14.98
2023-05-17T23:02:43.558Z,15.03
2023-05-17T23:05:12.140Z,15.00
2023-05-17T23:07:42.346Z,14.95
2023-05-17T23:10:11.305Z,14.92
2023-05-17T23:12:39.919Z,14.90
2023-05-17T23:15:09.692Z,14.83
2023-05-17T23:17:39.452Z,14.76
2023-05-17T23:20:12.624Z,14.68
2023-05-17T23:22:40.979Z,14.66
2023-05-17T23:25:09.509Z,14.64
2023-05-17T23:27:38.040Z,14.59
2023-05-17T23:30:07.750Z,14.54
2023-05-17T23:32:35.963Z,14.53
2023-05-17T23:35:04.685Z,14.49
2023-05-17T23:37:33.705Z,14.42
2023-05-17T23:40:02.062Z,14.37
2023-05-17T23:42:32.152Z,14.31
2023-05-17T23:45:01.118Z,14.28
2023-05-17T23:47:31.053Z,14.22
2023-05-17T23:49:59.551Z,14.23
2023-05-17T23:52:30.181Z,14.22
2023-05-17T23:54:59.280Z,14.18
2023-05-17T23:57:27.524Z,14.18
2023-05-17T23:59:55.833Z,14.16
